Latest Weather Observations for Troughton Island

IDW60801

Issued at 6:04 pm WST Sunday 24 January 2021 (issued every 10 minutes, with the page automatically refreshed every 10 minutes)

About weather observations | Map of weather stations | Latest weather observations for WA | Other Formats
Station Details ID: 001007 Name: TROUGHTON ISLAND Lat: -13.75 Lon: 126.15 Height: 6.0 m
Data from the previous 72 hours. | See also: Recent months at Troughton Island
Date/Time
WST
Temp
°C
App
Temp
°C
Dew
Point
°C
Rel
Hum
%
Delta-T
°C
Wind Press
QNH
hPa
Press
MSL
hPa
Rain since
9am
mm
Dir  Spd
km/h
Gust
km/h
Spd
kts
Gust
kts
24/06:00pm 27.6 28.6 26.0 91 1.1 NW 32 35 17 19 1005.7 1005.6 22.6
24/05:30pm 27.4 29.8 26.3 94 0.8 NW 26 32 14 17 1005.3 1005.2 22.6
24/05:00pm 27.6 29.0 24.8 85 2.0 WNW 26 35 14 19 1004.7 1004.6 22.6
24/04:30pm 27.4 26.8 25.0 87 1.7 W 37 46 20 25 1004.4 1004.3 22.6
24/04:27pm 27.3 26.0 25.1 88 1.5 W 41 46 22 25 1004.4 1004.3 22.6
24/04:00pm 26.5 25.6 26.2 98 0.2 WNW 43 54 23 29 1004.7 1004.6 22.6
24/03:52pm 27.1 27.9 26.6 97 0.4 WNW 35 52 19 28 1004.7 1004.6 22.4
24/03:30pm 27.2 31.1 26.9 98 0.2 WNW 20 26 11 14 1004.4 1004.3 22.4
24/03:00pm 26.6 31.7 26.1 97 0.4 S 11 13 6 7 1004.8 1004.7 22.2
24/02:30pm 26.0 32.0 26.0 100 0.0 ESE 6 9 3 5 1004.8 1004.7 22.2
24/02:00pm 24.9 28.5 24.4 97 0.3 SW 13 17 7 9 1005.2 1005.1 20.2
24/01:43pm 26.2 26.0 26.2 100 0.0 NW 39 57 21 31 1006.0 1005.9 16.6
24/01:36pm 26.6 26.9 26.3 98 0.2 NNW 37 56 20 30 1006.0 1005.9 13.2
24/01:30pm 27.2 30.1 26.5 96 0.5 N 24 46 13 25 1005.9 1005.8 13.0
24/01:28pm 27.5 31.3 26.8 96 0.5 N 20 39 11 21 1005.9 1005.8 13.0
24/01:00pm 27.0 32.1 26.1 95 0.6 NNE 11 15 6 8 1006.1 1006.0 13.0
24/12:30pm 26.6 30.2 25.6 94 0.7 N 17 22 9 12 1006.4 1006.3 13.0
24/12:00pm 26.2 30.7 25.2 94 0.7 ENE 11 19 6 10 1007.2 1007.1 12.4
24/11:43am 27.0 31.3 26.1 95 0.6 SSW 15 44 8 24 1007.4 1007.3 6.2
24/11:30am 28.6 33.5 27.0 91 1.1 NNE 15 20 8 11 1007.0 1006.9 0.0
24/11:00am 28.8 35.9 27.2 91 1.2 ESE 4 11 2 6 1007.8 1007.7 0.0
24/10:30am 28.5 34.7 26.7 90 1.3 ESE 7 11 4 6 1008.1 1008.0 0.0
24/10:00am 27.8 34.2 26.6 93 0.9 SE 6 9 3 5 1008.5 1008.4 0.0
24/09:30am 26.8 32.0 26.3 97 0.4 SSE 11 15 6 8 1008.4 1008.3 0.0
24/09:00am 25.9 30.8 25.2 96 0.5 E 9 11 5 6 1008.6 1008.5 47.2
24/08:30am 25.0 29.0 25.0 100 0.0 WNW 13 15 7 8 1008.2 1008.1 47.2
24/08:00am 25.1 26.6 24.4 96 0.5 W 24 33 13 18 1008.6 1008.5 28.2
24/07:46am 26.0 24.6 25.5 97 0.4 WNW 43 61 23 33 1008.4 1008.3 23.8
24/07:30am 27.7 29.0 24.1 81 2.5 WNW 24 44 13 24 1008.2 1008.1 21.2
24/07:00am 29.1 31.7 25.5 81 2.5 W 22 26 12 14 1007.7 1007.6 21.2
24/06:30am 29.1 31.3 25.5 81 2.5 W 24 28 13 15 1007.7 1007.6 21.2
24/06:00am 28.9 31.1 25.5 82 2.4 W 24 28 13 15 1007.4 1007.3 21.2
24/05:30am 28.7 30.7 25.7 84 2.1 W 26 28 14 15 1006.8 1006.7 21.2
24/05:00am 28.7 30.9 25.5 83 2.3 W 24 30 13 16 1006.7 1006.6 21.2
24/04:30am 28.2 32.6 26.8 92 1.0 W 17 20 9 11 1006.3 1006.2 21.2
24/04:00am 27.8 31.4 26.4 92 1.0 NW 20 26 11 14 1006.2 1006.1 21.2
24/03:30am 28.0 31.9 26.6 92 1.0 W 19 22 10 12 1006.0 1005.9 21.2
24/03:00am 27.9 31.7 25.9 89 1.4 WNW 17 20 9 11 1006.3 1006.2 21.2
24/02:30am 27.7 31.1 25.9 90 1.3 WNW 19 22 10 12 1006.4 1006.3 21.2
24/02:00am 27.7 31.1 26.1 91 1.1 WNW 20 24 11 13 1006.3 1006.2 21.2
24/01:30am 27.7 30.4 26.3 92 1.0 WNW 24 28 13 15 1006.1 1006.0 21.2
24/01:00am 27.7 30.3 25.5 88 1.6 W 22 26 12 14 1006.2 1006.1 21.2
24/12:30am 27.6 30.0 25.8 90 1.3 WNW 24 32 13 17 1006.6 1006.5 21.2
24/12:00am 27.3 28.6 25.9 92 1.0 W 30 33 16 18 1007.0 1006.9 21.2
 
Date/Time
WST
Temp
°C
App
Temp
°C
Dew
Point
°C
Rel
Hum
%
Delta-T
°C
Wind Press
QNH
hPa
Press
MSL
hPa
Rain since
9am
mm
Dir  Spd
km/h
Gust
km/h
Spd
kts
Gust
kts
23/11:30pm 27.0 28.8 26.0 94 0.7 WNW 28 33 15 18 1007.8 1007.7 21.2
23/11:00pm 26.4 28.7 25.7 96 0.5 WNW 24 30 13 16 1008.8 1008.7 20.8
23/10:30pm 25.9 28.3 25.2 96 0.5 W 22 28 12 15 1009.2 1009.1 19.6
23/10:00pm 25.3 24.0 23.2 88 1.4 WNW 35 43 19 23 1009.2 1009.1 19.0
23/09:52pm 24.7 22.6 24.4 98 0.2 NW 43 61 23 33 1009.6 1009.5 19.0
23/09:30pm 26.5 27.1 26.2 98 0.2 W 35 61 19 33 1009.9 1009.8 10.8
23/09:27pm 26.9 28.9 25.7 93 0.8 W 26 61 14 33 1009.9 1009.8 10.2
23/09:00pm 27.5 31.8 27.2 98 0.2 WNW 19 22 10 12 1009.2 1009.1 9.0
23/08:30pm 27.5 30.8 26.6 95 0.6 WNW 22 26 12 14 1009.5 1009.4 8.0
23/08:00pm 26.1 27.6 25.6 97 0.4 NW 28 41 15 22 1009.0 1008.9 6.6
23/07:30pm 27.8 30.3 27.6 99 0.1 WSW 30 52 16 28 1007.9 1007.8 5.0
23/07:01pm 28.5 29.7 26.5 89 1.4 WSW 33 61 18 33 1007.5 1007.4 0.4
23/07:00pm 28.9 30.7 27.1 90 1.3 WSW 32 39 17 21 1007.6 1007.5 0.2
23/06:30pm 28.1 30.1 26.3 90 1.3 WNW 28 37 15 20 1007.6 1007.5 0.0
23/06:00pm 30.1 32.1 26.9 83 2.3 WNW 30 35 16 19 1006.9 1006.8 0.0
23/05:30pm 30.1 31.6 26.7 82 2.4 NW 32 37 17 20 1006.5 1006.4 0.0
23/05:00pm 30.5 30.9 26.0 77 3.2 WNW 35 43 19 23 1006.3 1006.2 0.0
23/04:30pm 30.9 32.6 27.0 80 2.8 NW 32 39 17 21 1005.6 1005.5 0.0
23/04:00pm 29.3 30.6 26.7 86 1.9 WNW 33 44 18 24 1005.4 1005.3 0.0
23/03:52pm 29.8 30.5 26.4 82 2.4 NW 35 43 19 23 1005.3 1005.2 0.0
23/03:30pm 30.7 31.8 26.4 78 3.1 NW 33 41 18 22 1005.1 1005.0 0.0
23/03:00pm 30.8 31.8 26.3 77 3.2 NW 33 39 18 21 1005.0 1004.9 0.0
23/02:30pm 31.6 33.4 26.6 75 3.6 NW 30 35 16 19 1005.2 1005.1 0.0
23/02:00pm 31.0 32.3 26.5 77 3.2 NNW 32 39 17 21 1005.6 1005.5 0.0
23/01:30pm 30.3 31.4 26.2 79 2.9 NNW 32 41 17 22 1005.7 1005.6 0.0
23/01:00pm 30.5 32.4 26.2 78 3.1 NNW 28 35 15 19 1005.9 1005.8 0.0
23/12:30pm 30.0 30.8 25.7 78 3.0 NNW 32 39 17 21 1006.3 1006.2 0.0
23/12:00pm 30.8 32.1 25.8 74 3.6 NW 30 35 16 19 1006.6 1006.5 0.0
23/11:30am 31.6 32.9 25.9 72 4.1 NW 30 37 16 20 1007.0 1006.9 0.0
23/11:00am 32.1 33.8 25.9 70 4.4 NNW 28 33 15 18 1007.3 1007.2 0.0
23/10:30am 31.9 33.4 26.7 74 3.7 NW 32 37 17 20 1007.4 1007.3 0.0
23/10:00am 31.8 34.5 26.8 75 3.6 NNW 26 32 14 17 1007.9 1007.8 0.0
23/09:30am 31.6 34.2 26.6 75 3.6 NW 26 32 14 17 1008.2 1008.1 0.0
23/09:00am 30.6 33.4 27.0 81 2.6 NW 26 30 14 16 1008.4 1008.3 1.6
23/08:30am 29.9 33.1 25.9 79 2.8 NW 20 26 11 14 1008.1 1008.0 1.6
23/08:00am 29.4 33.1 26.6 85 2.0 NW 20 26 11 14 1008.0 1007.9 1.6
23/07:30am 29.3 32.5 25.9 82 2.4 NW 20 24 11 13 1008.1 1008.0 1.6
23/07:00am 28.9 32.3 26.1 85 2.0 NW 20 24 11 13 1008.0 1007.9 1.6
23/06:30am 28.7 31.7 25.5 83 2.3 NNW 20 26 11 14 1007.9 1007.8 1.6
23/06:00am 28.6 30.2 25.2 82 2.4 NNW 26 33 14 18 1007.4 1007.3 1.6
23/05:30am 29.1 30.0 25.3 80 2.7 NW 30 35 16 19 1006.9 1006.8 1.6
23/05:00am 29.1 31.2 25.9 83 2.3 NNW 26 33 14 18 1006.3 1006.2 1.6
23/04:30am 28.8 30.9 25.4 82 2.4 NNW 24 28 13 15 1006.0 1005.9 1.6
23/04:00am 28.9 31.5 26.1 85 2.0 NNW 24 28 13 15 1006.1 1006.0 1.6
23/03:30am 29.1 31.2 25.9 83 2.3 NNW 26 30 14 16 1005.9 1005.8 1.6
23/03:00am 28.9 32.5 26.5 87 1.7 NNW 20 24 11 13 1005.6 1005.5 1.6
23/02:30am 28.7 31.7 26.1 86 1.8 NNW 22 28 12 15 1005.6 1005.5 1.6
23/02:00am 28.4 32.6 27.0 92 1.0 NNW 19 24 10 13 1005.5 1005.4 1.6
23/01:30am 28.0 31.4 25.8 88 1.6 N 19 24 10 13 1005.9 1005.8 1.6
23/01:00am 27.6 29.5 25.0 86 1.8 N 24 43 13 23 1006.2 1006.1 1.4
23/12:30am 29.0 32.8 26.4 86 1.9 N 19 24 10 13 1006.4 1006.3 0.2
23/12:00am 29.0 33.1 26.4 86 1.9 N 17 22 9 12 1006.9 1006.8 0.2
 
Date/Time
WST
Temp
°C
App
Temp
°C
Dew
Point
°C
Rel
Hum
%
Delta-T
°C
Wind Press
QNH
hPa
Press
MSL
hPa
Rain since
9am
mm
Dir  Spd
km/h
Gust
km/h
Spd
kts
Gust
kts
22/11:30pm 28.8 33.1 26.6 88 1.6 N 17 20 9 11 1007.3 1007.2 0.2
22/11:00pm 29.0 33.4 26.2 85 2.0 N 15 19 8 10 1007.4 1007.3 0.2
22/10:30pm 29.0 33.1 25.8 83 2.3 N 15 19 8 10 1007.7 1007.6 0.2
22/10:00pm 29.1 32.8 25.7 82 2.4 NNE 17 20 9 11 1007.9 1007.8 0.2
22/09:30pm 29.0 33.5 25.8 83 2.3 NNE 13 17 7 9 1008.1 1008.0 0.2
22/09:00pm 28.9 33.3 25.7 83 2.3 N 13 17 7 9 1008.1 1008.0 0.2
22/08:30pm 28.9 33.3 25.1 80 2.7 NNE 11 15 6 8 1008.1 1008.0 0.2
22/08:00pm 28.9 32.9 25.1 80 2.7 NNE 13 17 7 9 1007.9 1007.8 0.2
22/07:30pm 28.5 32.2 25.1 82 2.4 NNE 15 19 8 10 1007.8 1007.7 0.2
22/07:00pm 28.0 31.7 25.8 88 1.6 NNE 17 22 9 12 1007.4 1007.3 0.2
22/06:30pm 27.9 31.1 24.9 84 2.1 NNE 17 20 9 11 1007.2 1007.1 0.2
22/06:00pm 27.7 31.0 24.5 83 2.2 N 15 20 8 11 1007.2 1007.1 0.2
22/05:30pm 27.4 30.4 25.6 90 1.3 N 20 32 11 17 1006.9 1006.8 0.2
22/05:00pm 27.4 29.4 25.2 88 1.5 NNW 24 32 13 17 1006.7 1006.6 0.2
22/04:30pm 26.8 28.6 24.8 89 1.4 WNW 24 32 13 17 1006.0 1005.9 0.2
22/04:00pm 29.8 33.6 25.3 77 3.2 NNE 15 19 8 10 1005.7 1005.6 0.0
22/03:30pm 30.0 33.2 24.9 74 3.6 NNE 17 19 9 10 1005.7 1005.6 0.0
22/03:00pm 30.6 34.2 26.1 77 3.2 NNE 19 22 10 12 1005.8 1005.7 0.0
22/02:30pm 30.1 33.8 25.8 78 3.1 NE 17 20 9 11 1006.3 1006.2 0.0
22/02:00pm 30.0 34.0 26.2 80 2.7 NNE 17 20 9 11 1006.0 1005.9 0.0
22/01:30pm 30.4 33.6 25.9 77 3.2 N 20 24 11 13 1006.3 1006.2 0.0
22/01:00pm 30.8 34.3 25.4 73 3.8 NNW 17 22 9 12 1006.9 1006.8 0.0
22/12:30pm 31.0 34.4 25.8 74 3.7 NW 19 22 10 12 1006.9 1006.8 0.0
22/12:00pm 30.5 33.4 25.1 73 3.8 NNW 19 24 10 13 1007.2 1007.1 0.0
22/11:30am 30.4 33.3 24.5 70 4.1 WNW 17 20 9 11 1007.5 1007.4 0.0
22/11:00am 30.6 32.9 25.7 75 3.5 WNW 24 30 13 16 1007.8 1007.7 0.0
22/10:30am 31.2 34.2 24.6 68 4.6 NNW 17 20 9 11 1008.3 1008.2 0.0
22/10:00am 31.4 35.3 25.5 71 4.2 N 15 20 8 11 1008.7 1008.6 0.0
22/09:30am 31.1 34.5 25.2 71 4.2 NNW 17 20 9 11 1008.9 1008.8 0.0
22/09:00am 30.6 33.8 25.0 72 3.9 NNW 17 20 9 11 1009.0 1008.9 0.2
22/08:30am 30.7 34.2 25.5 74 3.7 NNW 17 22 9 12 1008.8 1008.7 0.2
22/08:00am 30.5 34.1 26.4 79 2.9 NNW 20 24 11 13 1008.5 1008.4 0.2
22/07:30am 28.5 30.3 24.9 81 2.5 NNW 24 32 13 17 1008.3 1008.2 0.2
22/07:00am 30.1 34.0 26.1 79 2.9 NNW 17 22 9 12 1008.0 1007.9 0.0
22/06:30am 29.5 32.8 25.7 80 2.7 NNW 19 22 10 12 1007.8 1007.7 0.0
22/06:00am 29.1 32.6 25.5 81 2.5 NNW 17 20 9 11 1007.3 1007.2 0.0
22/05:30am 28.9 31.9 25.5 82 2.4 NNW 20 24 11 13 1007.3 1007.2 0.0
22/05:00am 28.5 31.5 25.3 83 2.3 N 19 22 10 12 1007.2 1007.1 0.0
22/04:30am 28.2 30.4 24.8 82 2.4 NNW 22 28 12 15 1007.0 1006.9 0.0
22/04:00am 27.9 29.5 24.5 82 2.4 NNW 24 39 13 21 1007.0 1006.9 0.0
22/03:59am 28.1 29.9 24.3 80 2.6 NNW 22 39 12 21 1007.0 1006.9 0.0
22/03:30am 28.9 32.8 25.5 82 2.4 NNW 15 19 8 10 1006.7 1006.6 0.0
22/03:00am 29.1 32.6 25.5 81 2.5 NNW 17 22 9 12 1006.6 1006.5 0.0
22/02:30am 29.0 32.4 25.8 83 2.3 NNW 19 22 10 12 1006.5 1006.4 0.0
22/02:00am 28.9 32.3 25.3 81 2.5 NNW 17 24 9 13 1006.6 1006.5 0.0
22/01:30am 29.0 32.2 25.0 79 2.8 NNW 17 20 9 11 1007.0 1006.9 0.0
22/01:00am 29.2 32.0 25.2 79 2.8 NNW 20 24 11 13 1007.1 1007.0 0.0
22/12:30am 29.3 31.9 25.5 80 2.7 NNW 22 28 12 15 1007.3 1007.2 0.0
22/12:00am 29.4 32.2 25.8 81 2.6 N 22 26 12 14 1007.6 1007.5 0.0
 
Date/Time
WST
Temp
°C
App
Temp
°C
Dew
Point
°C
Rel
Hum
%
Delta-T
°C
Wind Press
QNH
hPa
Press
MSL
hPa
Rain since
9am
mm
Dir  Spd
km/h
Gust
km/h
Spd
kts
Gust
kts
21/11:30pm 29.5 32.6 25.7 80 2.7 N 20 26 11 14 1008.0 1007.9 0.0
21/11:00pm 29.6 33.0 25.8 80 2.7 N 19 26 10 14 1008.0 1007.9 0.0
21/10:30pm 29.6 32.8 25.6 79 2.8 N 19 26 10 14 1008.5 1008.4 0.0
21/10:00pm 29.6 32.9 25.1 77 3.2 N 17 24 9 13 1008.5 1008.4 0.0
21/09:30pm 29.7 33.1 25.2 77 3.2 N 17 22 9 12 1008.7 1008.6 0.0
21/09:00pm 29.6 33.3 25.1 77 3.2 N 15 20 8 11 1008.5 1008.4 0.0
21/08:30pm 29.8 33.3 25.5 78 3.0 N 17 22 9 12 1008.1 1008.0 0.0
21/08:00pm 29.8 33.7 25.5 78 3.0 N 15 20 8 11 1007.5 1007.4 0.0
21/07:30pm 29.7 33.6 25.4 78 3.0 N 15 20 8 11 1007.3 1007.2 0.0
21/07:00pm 29.6 32.6 25.6 79 2.8 N 20 24 11 13 1007.2 1007.1 0.0
21/06:30pm 29.7 32.8 25.7 79 2.8 N 20 26 11 14 1007.0 1006.9 0.0

Other formats

Comma delimited format used in spreadsheet applications
http://www.bom.gov.au/fwo/IDW60801/IDW60801.94102.axf

JavaScript Object Notation format (JSON) in row-major order
http://www.bom.gov.au/fwo/IDW60801/IDW60801.94102.json

Data quality

Most of these data are generated automatically and are frequently updated. Quality checks on data are not normally performed. It is possible for incorrect values to appear. Refer to information at About Latest Weather Observations and please check the disclaimer before using these data.